Time;durP1;ratioP1;P1;durP2;ratioP2;P2;SDS_P1;SDS_P2;PMS_P1;PMS_P2;Temp;Humidity;BMP_temperature;BMP_pressure;BME280_temperature;BME280_humidity;BME280_pressure;Samples;Min_cycle;Max_cycle;Signal;HPM_P1;HPM_P2
2022/03/15 00:00:45;;;;;;;56.35;34.80;;;;;;;8.51;95.79;101581.41;4984018;28;20034;-82
2022/03/15 00:03:11;;;;;;;54.05;33.28;;;;;;;8.52;96.00;101573.44;4988045;28;20083;-82
2022/03/15 00:05:37;;;;;;;51.80;34.00;;;;;;;8.52;95.57;101573.44;4986511;28;20038;-83
2022/03/15 00:08:02;;;;;;;52.70;34.45;;;;;;;8.54;95.77;101579.47;4990098;28;20038;-83
2022/03/15 00:10:28;;;;;;;49.45;33.85;;;;;;;8.56;95.86;101571.50;5001305;28;20026;-83
2022/03/15 00:12:56;;;;;;;50.88;33.00;;;;;;;8.55;95.84;101562.75;4998835;28;20087;-83
2022/03/15 00:15:22;;;;;;;53.72;33.33;;;;;;;8.56;95.70;101569.72;5005515;28;20023;-81
2022/03/15 00:17:48;;;;;;;53.22;33.90;;;;;;;8.58;95.97;101562.59;5005485;28;20050;-83
2022/03/15 00:20:18;;;;;;;55.55;34.70;;;;;;;8.58;95.70;101567.88;4995007;28;20089;-83
2022/03/15 00:22:45;;;;;;;55.25;35.25;;;;;;;8.60;95.95;101573.03;4998796;28;20046;-83
2022/03/15 00:25:16;;;;;;;59.38;35.30;;;;;;;8.60;94.92;101565.13;4977775;28;20046;-83
2022/03/15 00:27:41;;;;;;;53.88;34.92;;;;;;;8.59;94.81;101569.56;4989780;28;20034;-83
2022/03/15 00:30:07;;;;;;;52.10;33.40;;;;;;;8.59;94.76;101574.84;4985189;28;20054;-83
2022/03/15 00:32:35;;;;;;;52.38;34.40;;;;;;;8.61;94.95;101583.47;4985084;28;20402;-83
2022/03/15 00:35:00;;;;;;;55.88;33.80;;;;;;;8.62;94.74;101577.28;4985705;28;20121;-83
2022/03/15 00:37:27;;;;;;;52.80;34.55;;;;;;;8.62;95.07;101574.66;4984785;28;20057;-83
2022/03/15 00:39:52;;;;;;;55.38;35.78;;;;;;;8.62;94.72;101579.91;4984407;28;20094;-83
2022/03/15 00:42:18;;;;;;;56.88;35.03;;;;;;;8.62;94.83;101574.66;4987296;28;20387;-83
2022/03/15 00:44:43;;;;;;;55.75;35.13;;;;;;;8.63;94.67;101576.34;4983211;28;20463;-83
2022/03/15 00:47:10;;;;;;;54.60;34.38;;;;;;;8.65;95.10;101573.66;4985129;28;20054;-83
2022/03/15 00:49:37;;;;;;;52.85;33.92;;;;;;;8.67;95.58;101573.56;4986506;28;20085;-83
2022/03/15 00:52:04;;;;;;;52.40;34.78;;;;;;;8.63;95.49;101576.34;5000220;28;20494;-83
2022/03/15 00:54:31;;;;;;;54.45;33.80;;;;;;;8.61;96.43;101578.22;5000260;28;20065;-83
2022/03/15 00:56:57;;;;;;;54.20;34.70;;;;;;;8.62;96.27;101584.31;4986790;28;20156;-82
2022/03/15 00:59:23;;;;;;;53.40;34.80;;;;;;;8.60;97.07;101587.03;4990916;28;20076;-83
2022/03/15 01:01:50;;;;;;;56.85;35.72;;;;;;;8.58;96.92;101583.66;4982210;28;20042;-84
2022/03/15 01:04:16;;;;;;;55.10;35.55;;;;;;;8.58;97.43;101583.66;4986741;28;20044;-84
2022/03/15 01:06:42;;;;;;;54.35;34.40;;;;;;;8.58;97.61;101578.38;4986915;28;20133;-82
2022/03/15 01:09:09;;;;;;;55.80;35.17;;;;;;;8.50;98.13;101577.94;4986272;28;20269;-81
2022/03/15 01:11:36;;;;;;;57.00;36.80;;;;;;;8.42;98.29;101571.38;5014847;28;20031;-83
2022/03/15 01:14:02;;;;;;;54.03;35.65;;;;;;;8.40;98.28;101568.81;4988356;28;20141;-84
2022/03/15 01:16:28;;;;;;;55.30;36.90;;;;;;;8.38;98.27;101573.31;5020421;28;20106;-85
2022/03/15 01:18:53;;;;;;;54.28;34.47;;;;;;;8.36;98.37;101572.56;5000070;28;20037;-82
2022/03/15 01:21:19;;;;;;;58.97;36.63;;;;;;;8.35;98.96;101565.59;5004574;28;20098;-83
2022/03/15 01:23:45;;;;;;;56.17;36.10;;;;;;;8.35;99.15;101560.31;5004753;28;20095;-83
2022/03/15 01:26:13;;;;;;;54.60;36.15;;;;;;;8.37;98.98;101558.44;4986499;28;20030;-83
2022/03/15 01:28:40;;;;;;;54.00;35.17;;;;;;;8.37;99.57;101558.44;5018515;28;20022;-83
2022/03/15 01:31:05;;;;;;;56.03;35.63;;;;;;;8.38;99.71;101560.16;4999335;28;20414;-84
2022/03/15 01:33:32;;;;;;;58.97;35.53;;;;;;;8.39;99.42;101556.59;4985136;28;20082;-83
2022/03/15 01:35:59;;;;;;;55.42;36.20;;;;;;;8.39;99.64;101556.59;4986168;28;20038;-84
2022/03/15 01:38:26;;;;;;;57.88;36.65;;;;;;;8.40;99.33;101558.31;4985066;28;20477;-83
2022/03/15 01:40:53;;;;;;;56.85;36.10;;;;;;;8.40;99.57;101555.66;4983048;28;20031;-84
2022/03/15 01:43:18;;;;;;;57.88;36.08;;;;;;;8.35;100.00;101560.31;4985941;28;20456;-84
2022/03/15 01:45:44;;;;;;;54.70;36.17;;;;;;;8.36;100.00;101551.50;5000860;28;20874;-83
2022/03/15 01:48:10;;;;;;;59.50;38.05;;;;;;;8.36;100.00;101550.66;4984791;28;20061;-83
2022/03/15 01:50:39;;;;;;;61.35;37.80;;;;;;;8.31;100.00;101550.03;4983052;28;21089;-83
2022/03/15 01:53:05;;;;;;;60.87;38.37;;;;;;;8.29;100.00;101544.84;4985107;28;20037;-84
2022/03/15 01:55:31;;;;;;;60.10;37.70;;;;;;;8.30;100.00;101551.84;4983445;28;20094;-83
2022/03/15 01:57:57;;;;;;;60.08;38.85;;;;;;;8.30;100.00;101541.31;4994324;28;20341;-84
2022/03/15 02:00:23;;;;;;;60.72;38.67;;;;;;;8.28;100.00;101543.13;4982350;28;20455;-84
2022/03/15 02:02:51;;;;;;;60.03;37.95;;;;;;;8.24;100.00;101546.84;4980232;28;20423;-84
2022/03/15 02:05:16;;;;;;;66.15;39.42;;;;;;;8.18;100.00;101537.50;4985071;28;20022;-83
2022/03/15 02:07:43;;;;;;;64.38;38.53;;;;;;;8.13;100.00;101534.22;4982423;28;20050;-84
2022/03/15 02:10:10;;;;;;;60.25;39.47;;;;;;;8.08;100.00;101535.41;4985734;28;20038;-84
2022/03/15 02:12:37;;;;;;;64.28;40.30;;;;;;;7.97;100.00;101529.84;4983304;28;20487;-84
2022/03/15 02:15:06;;;;;;;65.20;39.08;;;;;;;7.89;100.00;101529.41;4985928;28;20074;-83
2022/03/15 02:17:31;;;;;;;63.33;39.58;;;;;;;7.82;100.00;101527.09;4982554;28;20034;-84
2022/03/15 02:19:57;;;;;;;65.45;40.17;;;;;;;7.77;100.00;101521.22;4981338;28;20118;-84
2022/03/15 02:22:22;;;;;;;66.57;41.97;;;;;;;7.72;100.00;101520.56;4982464;28;20111;-83
2022/03/15 02:24:49;;;;;;;70.35;41.28;;;;;;;7.72;100.00;101510.06;4983324;28;20066;-84
2022/03/15 02:27:15;;;;;;;65.43;40.42;;;;;;;7.75;100.00;101509.06;4984301;28;20073;-83
2022/03/15 02:29:41;;;;;;;58.72;38.58;;;;;;;7.77;100.00;101505.44;4983903;28;20038;-83
2022/03/15 02:32:07;;;;;;;61.22;38.33;;;;;;;7.76;100.00;101508.16;4982272;28;20054;-84
2022/03/15 02:34:33;;;;;;;61.55;40.10;;;;;;;7.80;100.00;101510.53;4985458;28;20097;-84
2022/03/15 02:36:59;;;;;;;64.10;38.90;;;;;;;7.85;100.00;101509.44;4983819;28;20023;-83
2022/03/15 02:39:24;;;;;;;63.78;39.40;;;;;;;7.87;100.00;101504.97;4979938;28;20376;-83
2022/03/15 02:41:50;;;;;;;65.38;38.35;;;;;;;7.91;100.00;101503.88;4984750;28;20034;-84
2022/03/15 02:44:16;;;;;;;62.83;40.88;;;;;;;7.95;100.00;101502.81;4980929;28;20030;-83
2022/03/15 02:46:42;;;;;;;61.33;39.17;;;;;;;7.94;100.00;101504.59;5011852;28;20424;-84
2022/03/15 02:49:09;;;;;;;63.17;39.58;;;;;;;7.96;100.00;101501.84;4984596;28;20034;-84
2022/03/15 02:51:35;;;;;;;62.83;38.60;;;;;;;7.94;100.00;101496.69;4980396;28;20039;-84
2022/03/15 02:54:08;;;;;;;62.70;39.35;;;;;;;7.92;100.00;101498.53;4984177;28;20033;-83
2022/03/15 02:56:38;;;;;;;60.90;40.55;;;;;;;7.91;100.00;101495.97;4986668;28;20065;-84
2022/03/15 02:59:03;;;;;;;66.32;41.38;;;;;;;7.88;100.00;101493.53;4987665;28;20038;-84
2022/03/15 03:01:29;;;;;;;66.35;41.85;;;;;;;7.83;100.00;101494.59;4978699;28;20685;-83
2022/03/15 03:03:55;;;;;;;67.28;41.28;;;;;;;7.80;100.00;101494.75;4983058;28;20471;-83
2022/03/15 03:06:20;;;;;;;69.18;40.53;;;;;;;7.78;100.00;101493.97;4980113;28;20428;-83
2022/03/15 03:08:46;;;;;;;60.72;39.85;;;;;;;7.72;100.00;101491.66;4984096;28;20077;-83
2022/03/15 03:11:11;;;;;;;66.43;40.80;;;;;;;7.65;100.00;101495.56;4984574;28;20033;-83
2022/03/15 03:13:37;;;;;;;68.72;41.33;;;;;;;7.61;100.00;101480.84;4984298;28;20530;-83
2022/03/15 03:16:05;;;;;;;67.63;39.92;;;;;;;7.61;100.00;101488.72;4982043;28;20173;-83
2022/03/15 03:18:34;;;;;;;61.40;39.35;;;;;;;7.60;100.00;101486.19;4982515;28;20093;-82
2022/03/15 03:21:01;;;;;;;64.60;40.53;;;;;;;7.59;100.00;101487.97;4982395;28;20380;-83
2022/03/15 03:23:28;;;;;;;67.82;41.15;;;;;;;7.60;100.00;101487.03;4982426;28;20519;-84
2022/03/15 03:25:56;;;;;;;66.95;42.78;;;;;;;7.61;100.00;101483.47;4983399;28;20038;-83
2022/03/15 03:28:26;;;;;;;63.53;39.40;;;;;;;7.61;100.00;101483.47;4993606;28;20040;-84
2022/03/15 03:30:52;;;;;;;65.00;41.63;;;;;;;7.63;100.00;101492.13;4984181;28;20042;-83
2022/03/15 03:33:19;;;;;;;69.25;42.08;;;;;;;7.60;100.00;101484.41;4981484;28;20037;-83
2022/03/15 03:35:45;;;;;;;67.57;41.35;;;;;;;7.60;100.00;101492.28;4985127;28;20072;-83
2022/03/15 03:38:12;;;;;;;70.53;41.95;;;;;;;7.59;100.00;101493.22;5014914;28;20019;-83
2022/03/15 03:40:37;;;;;;;72.78;43.30;;;;;;;7.58;100.00;101504.66;5000244;28;20098;-83
2022/03/15 03:43:04;;;;;;;65.32;41.08;;;;;;;7.58;100.00;101502.03;4987033;28;20065;-82
2022/03/15 03:45:31;;;;;;;66.13;41.65;;;;;;;7.62;100.00;101506.19;4984395;28;20038;-82
2022/03/15 03:47:57;;;;;;;66.65;41.15;;;;;;;7.67;100.00;101503.34;4983326;28;20057;-81
2022/03/15 03:50:23;;;;;;;69.82;40.45;;;;;;;7.72;100.00;101507.44;4964340;28;20082;-82
2022/03/15 03:52:49;;;;;;;61.65;39.20;;;;;;;7.75;100.00;101511.69;4985775;28;20022;-82
2022/03/15 03:55:14;;;;;;;68.78;42.08;;;;;;;7.77;100.00;101505.44;4984767;28;20125;-81
2022/03/15 03:57:40;;;;;;;63.22;40.17;;;;;;;7.79;100.00;101514.09;4999606;28;20042;-83
2022/03/15 04:00:06;;;;;;;62.63;39.70;;;;;;;7.79;100.00;101521.13;4982372;28;20106;-82
2022/03/15 04:02:38;;;;;;;65.90;40.08;;;;;;;7.79;100.00;101524.59;4995385;28;20037;-82
2022/03/15 04:05:04;;;;;;;63.25;40.35;;;;;;;7.83;100.00;101526.13;5008535;28;20054;-82
2022/03/15 04:07:31;;;;;;;60.60;38.92;;;;;;;7.79;100.00;101526.38;4997996;28;20019;-82
2022/03/15 04:09:56;;;;;;;63.17;39.88;;;;;;;7.72;100.00;101528.44;5005045;28;20050;-81
2022/03/15 04:12:23;;;;;;;65.47;40.42;;;;;;;7.63;100.00;101528.94;5000810;28;20443;-82
2022/03/15 04:14:49;;;;;;;64.10;40.83;;;;;;;7.57;100.00;101531.00;4975367;28;20122;-82
2022/03/15 04:17:16;;;;;;;69.30;42.05;;;;;;;7.53;100.00;101540.81;4989557;28;20407;-81
2022/03/15 04:19:42;;;;;;;65.40;40.72;;;;;;;7.48;100.00;101539.34;4995748;28;20087;-82
2022/03/15 04:22:08;;;;;;;63.55;40.80;;;;;;;7.47;100.00;101543.75;4999488;28;20058;-82
2022/03/15 04:24:33;;;;;;;67.72;40.35;;;;;;;7.47;100.00;101543.75;4995964;28;20042;-82
2022/03/15 04:26:59;;;;;;;59.47;39.28;;;;;;;7.48;100.00;101540.16;5012674;28;20023;-81
2022/03/15 04:29:26;;;;;;;59.08;38.13;;;;;;;7.51;100.00;101545.28;5009898;28;20059;-83
2022/03/15 04:31:51;;;;;;;64.07;41.80;;;;;;;7.54;100.00;101539.88;4991928;28;20027;-83
2022/03/15 04:34:18;;;;;;;65.40;41.38;;;;;;;7.58;100.00;101536.19;4982970;28;20042;-82
2022/03/15 04:36:45;;;;;;;63.88;38.47;;;;;;;7.61;100.00;101540.41;4981956;28;20034;-83
2022/03/15 04:39:12;;;;;;;62.42;38.75;;;;;;;7.63;100.00;101528.94;4995471;28;20054;-83
2022/03/15 04:41:38;;;;;;;60.67;39.25;;;;;;;7.62;100.00;101531.63;5004270;28;20040;-82
2022/03/15 04:44:04;;;;;;;68.05;39.90;;;;;;;7.60;100.00;101531.69;5002949;28;20022;-83
2022/03/15 04:46:30;;;;;;;63.50;40.83;;;;;;;7.63;100.00;101528.94;5001369;28;20019;-82
2022/03/15 04:48:56;;;;;;;71.35;42.13;;;;;;;7.65;100.00;101527.09;5001194;28;20030;-82
2022/03/15 04:51:23;;;;;;;63.50;39.85;;;;;;;7.66;100.00;101526.13;4996492;28;20078;-82
2022/03/15 04:53:49;;;;;;;61.03;39.70;;;;;;;7.67;100.00;101530.47;4989936;28;20057;-83
2022/03/15 04:56:15;;;;;;;63.30;40.17;;;;;;;7.67;100.00;101524.34;4987699;28;20486;-82
2022/03/15 04:58:40;;;;;;;60.35;39.70;;;;;;;7.64;100.00;101525.38;5014885;28;20435;-83
2022/03/15 05:01:06;;;;;;;58.95;38.78;;;;;;;7.57;100.00;101523.13;4997620;28;20035;-83
2022/03/15 05:03:35;;;;;;;61.80;40.38;;;;;;;7.55;100.00;101525.81;5006050;28;20022;-83
2022/03/15 05:06:01;;;;;;;63.95;40.40;;;;;;;7.52;100.00;101531.22;5006499;28;20097;-84
2022/03/15 05:08:26;;;;;;;65.43;40.10;;;;;;;7.50;100.00;101522.56;5011422;28;20038;-83
2022/03/15 05:11:07;;;;;;;65.50;40.30;;;;;;;7.54;100.00;101528.53;5013647;28;20069;-83
2022/03/15 05:13:44;;;;;;;63.42;39.20;;;;;;;7.55;100.00;101528.44;4998378;28;20039;-83
2022/03/15 05:16:19;;;;;;;61.50;38.85;;;;;;;7.56;100.00;101527.53;5004038;28;20146;-83
2022/03/15 05:18:45;;;;;;;65.43;40.03;;;;;;;7.58;100.00;101524.81;4985328;28;20101;-84
2022/03/15 05:21:14;;;;;;;64.05;40.20;;;;;;;7.58;100.00;101525.69;4985038;28;20053;-83
2022/03/15 05:23:39;;;;;;;63.30;40.13;;;;;;;7.58;100.00;101524.81;4988032;28;20118;-83
2022/03/15 05:26:05;;;;;;;62.70;39.05;;;;;;;7.59;100.00;101532.63;5003652;22;20600;-73
2022/03/15 05:28:30;;;;;;;65.32;41.05;;;;;;;7.61;100.00;101536.03;4982074;28;20330;-73
2022/03/15 05:30:56;;;;;;;63.53;38.95;;;;;;;7.63;100.00;101528.94;4982184;28;20340;-72
2022/03/15 05:33:22;;;;;;;65.97;39.90;;;;;;;7.65;100.00;101532.34;4983542;28;20038;-75
2022/03/15 05:35:47;;;;;;;63.75;41.15;;;;;;;7.65;100.00;101537.59;4980745;28;20049;-72
2022/03/15 05:38:13;;;;;;;62.65;39.60;;;;;;;7.61;100.00;101529.91;4984075;28;20022;-74
2022/03/15 05:40:38;;;;;;;63.88;39.25;;;;;;;7.61;100.00;101530.75;4980466;28;20089;-72
2022/03/15 05:43:04;;;;;;;58.80;38.78;;;;;;;7.64;100.00;101540.28;4981296;28;20085;-74
2022/03/15 05:45:30;;;;;;;66.00;41.17;;;;;;;7.65;100.00;101542.00;4981620;28;20407;-72
2022/03/15 05:47:56;;;;;;;65.40;40.80;;;;;;;7.64;100.00;101543.78;4981521;28;20387;-73
2022/03/15 05:50:22;;;;;;;66.00;40.90;;;;;;;7.67;100.00;101540.97;4983079;28;20144;-74
2022/03/15 05:52:48;;;;;;;64.72;41.22;;;;;;;7.68;100.00;101547.94;4979782;28;20836;-73
2022/03/15 05:55:13;;;;;;;66.10;40.22;;;;;;;7.70;100.00;101548.72;4983596;28;20030;-75
2022/03/15 05:57:39;;;;;;;65.03;40.33;;;;;;;7.69;100.00;101549.63;4982683;28;20090;-73
2022/03/15 06:00:07;;;;;;;66.45;40.15;;;;;;;7.67;100.00;101550.63;4982591;28;20188;-74
2022/03/15 06:02:38;;;;;;;66.18;38.70;;;;;;;7.63;100.00;101555.19;4979515;28;20046;-74
2022/03/15 06:05:05;;;;;;;62.20;40.10;;;;;;;7.65;100.00;101553.34;4982268;28;20038;-74
2022/03/15 06:07:31;;;;;;;63.50;40.45;;;;;;;7.63;100.00;101549.94;4981094;28;20030;-72
2022/03/15 06:09:58;;;;;;;63.47;40.97;;;;;;;7.60;100.00;101550.06;4981311;28;20039;-73
2022/03/15 06:12:25;;;;;;;65.00;41.50;;;;;;;7.61;100.00;101540.41;4982239;28;20042;-71
2022/03/15 06:14:51;;;;;;;65.30;40.75;;;;;;;7.60;100.00;101544.81;4980235;28;20039;-72
2022/03/15 06:17:17;;;;;;;67.80;41.50;;;;;;;7.62;100.00;101553.50;4983338;28;20479;-76
2022/03/15 06:19:42;;;;;;;67.03;41.42;;;;;;;7.65;100.00;101553.34;4979575;28;20042;-74
2022/03/15 06:22:08;;;;;;;68.93;43.00;;;;;;;7.67;100.00;101550.63;4982495;28;20026;-73
2022/03/15 06:24:34;;;;;;;68.03;42.55;;;;;;;7.66;100.00;101554.19;4977082;28;20031;-74
2022/03/15 06:27:01;;;;;;;70.15;41.97;;;;;;;7.65;100.00;101548.09;4985803;28;20070;-73
2022/03/15 06:29:28;;;;;;;64.38;41.38;;;;;;;7.67;100.00;101556.75;4980704;28;20034;-73
2022/03/15 06:31:53;;;;;;;66.32;42.67;;;;;;;7.72;100.00;101553.88;4981676;28;20112;-73
2022/03/15 06:34:20;;;;;;;65.80;41.30;;;;;;;7.74;100.00;101558.16;4979628;28;20081;-73
2022/03/15 06:36:46;;;;;;;65.03;42.00;;;;;;;7.75;100.00;101559.00;4982469;28;20817;-72
2022/03/15 06:39:11;;;;;;;73.43;43.08;;;;;;;7.78;100.00;101556.19;4979484;28;20038;-72
2022/03/15 06:41:38;;;;;;;61.35;39.80;;;;;;;7.79;100.00;101564.03;4981396;28;20351;-72
2022/03/15 06:44:08;;;;;;;67.55;42.17;;;;;;;7.78;100.00;101559.69;4980438;28;20046;-73
2022/03/15 06:46:34;;;;;;;64.03;41.83;;;;;;;7.81;100.00;101567.44;4980924;28;20042;-73
2022/03/15 06:49:00;;;;;;;63.67;40.83;;;;;;;7.85;100.00;101576.00;4981480;28;20034;-71
2022/03/15 06:51:26;;;;;;;65.25;40.45;;;;;;;7.87;100.00;101568.91;4980791;28;20413;-72
2022/03/15 06:53:52;;;;;;;68.30;41.90;;;;;;;7.82;100.00;101568.28;4979445;28;20069;-73
2022/03/15 06:56:18;;;;;;;63.45;38.75;;;;;;;7.85;100.00;101570.75;4982430;28;20041;-72
2022/03/15 06:58:45;;;;;;;64.78;40.42;;;;;;;7.86;100.00;101571.59;4979547;28;20030;-72
2022/03/15 07:01:11;;;;;;;64.50;40.15;;;;;;;7.90;100.00;101581.03;4980911;28;20039;-72
2022/03/15 07:03:36;;;;;;;60.88;39.40;;;;;;;7.90;100.00;101578.41;4980949;28;20049;-71
2022/03/15 07:06:02;;;;;;;66.65;41.38;;;;;;;7.88;100.00;101575.00;4980215;28;20083;-71
2022/03/15 07:08:28;;;;;;;62.17;39.65;;;;;;;7.81;100.00;101585.81;4978362;28;20347;-71
2022/03/15 07:10:54;;;;;;;62.53;40.05;;;;;;;7.78;100.00;101583.34;4977991;28;20038;-70
2022/03/15 07:13:19;;;;;;;70.53;41.50;;;;;;;7.77;100.00;101580.81;4981626;28;20042;-72
2022/03/15 07:15:45;;;;;;;64.40;41.03;;;;;;;7.76;100.00;101584.34;4977993;28;20042;-71
2022/03/15 07:18:11;;;;;;;66.43;41.67;;;;;;;7.76;100.00;101587.84;4981716;28;20061;-71
2022/03/15 07:20:37;;;;;;;63.78;41.03;;;;;;;7.78;100.00;101585.97;4978701;28;20034;-71
2022/03/15 07:23:02;;;;;;;65.68;40.22;;;;;;;7.75;100.00;101583.50;4978983;28;20043;-73
2022/03/15 07:25:28;;;;;;;62.67;42.03;;;;;;;7.71;100.00;101584.59;4994868;28;20053;-71
2022/03/15 07:27:54;;;;;;;68.97;40.80;;;;;;;7.79;100.00;101587.66;4979935;28;20506;-72
2022/03/15 07:30:19;;;;;;;67.30;40.72;;;;;;;7.83;100.00;101585.75;4981355;28;20030;-72
2022/03/15 07:32:45;;;;;;;65.10;41.75;;;;;;;7.88;100.00;101580.28;4978225;28;20042;-72
2022/03/15 07:35:11;;;;;;;66.28;41.35;;;;;;;8.02;100.00;101583.03;4981307;28;20040;-72
2022/03/15 07:37:37;;;;;;;66.18;42.42;;;;;;;8.09;100.00;101584.44;4978290;28;20179;-72
2022/03/15 07:40:04;;;;;;;61.35;40.55;;;;;;;8.16;100.00;101575.31;4980062;28;20037;-72
2022/03/15 07:42:30;;;;;;;70.65;41.22;;;;;;;8.19;100.00;101576.00;4978948;28;20071;-72
2022/03/15 07:44:56;;;;;;;65.45;42.05;;;;;;;8.28;100.00;101579.94;4979090;28;20066;-71
2022/03/15 07:47:21;;;;;;;61.92;41.05;;;;;;;8.26;100.00;101576.53;4980894;28;20084;-71
2022/03/15 07:49:48;;;;;;;64.00;40.22;;;;;;;8.21;100.00;101579.41;4977753;28;20027;-71
2022/03/15 07:52:14;;;;;;;67.97;41.08;;;;;;;8.20;100.00;101577.69;4980051;28;20396;-72
2022/03/15 07:54:40;;;;;;;67.38;42.28;;;;;;;8.30;100.00;101580.75;4977486;28;20042;-72
2022/03/15 07:57:07;;;;;;;64.18;41.10;;;;;;;8.35;100.00;101597.16;4982647;28;20042;-72
2022/03/15 07:59:33;;;;;;;66.35;42.58;;;;;;;8.39;100.00;101598.69;4978489;28;20035;-72
2022/03/15 08:01:58;;;;;;;65.30;41.60;;;;;;;8.54;100.00;101600.50;4978613;28;20139;-72
2022/03/15 08:04:23;;;;;;;66.05;42.15;;;;;;;8.69;100.00;101595.38;4988097;28;20023;-71
2022/03/15 08:06:49;;;;;;;59.95;39.55;;;;;;;8.86;100.00;101595.34;4983306;28;20033;-72
2022/03/15 08:09:14;;;;;;;64.32;40.38;;;;;;;9.00;100.00;101595.47;4976250;28;20380;-72
2022/03/15 08:11:41;;;;;;;64.38;40.65;;;;;;;9.10;100.00;101604.53;4979600;28;20054;-73
2022/03/15 08:14:09;;;;;;;63.45;39.70;;;;;;;9.29;100.00;101597.34;5009043;28;20045;-71
2022/03/15 08:16:35;;;;;;;61.85;39.65;;;;;;;9.42;100.00;101600.97;4979571;28;20050;-72
2022/03/15 08:19:00;;;;;;;58.15;39.00;;;;;;;9.57;100.00;101611.59;4979131;28;20023;-71
2022/03/15 08:21:26;;;;;;;60.47;39.30;;;;;;;9.62;100.00;101606.91;4978775;28;20487;-72
2022/03/15 08:23:52;;;;;;;60.47;38.97;;;;;;;9.66;100.00;101605.81;4979793;28;20026;-71
2022/03/15 08:26:18;;;;;;;59.25;36.95;;;;;;;9.70;100.00;101586.25;4981719;28;20057;-71
2022/03/15 08:28:45;;;;;;;59.60;38.83;;;;;;;9.75;100.00;101589.47;4980775;28;20117;-72
2022/03/15 08:31:10;;;;;;;62.47;39.38;;;;;;;9.81;100.00;101586.47;4984372;28;20085;-73
2022/03/15 08:33:36;;;;;;;58.30;37.15;;;;;;;9.87;100.00;101594.03;4981300;28;20038;-72
2022/03/15 08:36:01;;;;;;;58.30;36.90;;;;;;;9.92;100.00;101597.25;4983176;28;20038;-72
2022/03/15 08:38:29;;;;;;;54.60;36.22;;;;;;;9.97;100.00;101592.56;4982459;28;20122;-71
2022/03/15 08:40:55;;;;;;;59.00;37.17;;;;;;;10.08;100.00;101592.78;4981817;28;20089;-72
2022/03/15 08:43:22;;;;;;;56.38;37.28;;;;;;;10.03;100.00;101600.13;4982810;28;20030;-71
2022/03/15 08:45:48;;;;;;;56.53;37.08;;;;;;;10.05;100.00;101598.25;4980632;28;20068;-71
2022/03/15 08:48:13;;;;;;;55.58;36.10;;;;;;;10.14;100.00;101597.69;4984055;28;20504;-71
2022/03/15 08:50:38;;;;;;;58.45;36.90;;;;;;;10.10;100.00;101606.72;4981193;28;20035;-71
2022/03/15 08:53:05;;;;;;;59.30;37.45;;;;;;;10.14;100.00;101605.59;4982931;28;20114;-70
2022/03/15 08:55:31;;;;;;;53.63;35.17;;;;;;;10.23;100.00;101613.03;4982393;28;20117;-71
2022/03/15 08:57:56;;;;;;;51.67;33.70;;;;;;;10.25;100.00;101615.56;4983112;28;20026;-72
2022/03/15 09:00:22;;;;;;;61.92;35.47;;;;;;;10.33;100.00;101608.03;4979425;28;20356;-71
2022/03/15 09:02:48;;;;;;;54.58;34.80;;;;;;;10.37;99.49;101608.72;4987808;28;20045;-71
2022/03/15 09:05:18;;;;;;;51.42;33.88;;;;;;;10.41;98.99;101608.44;4983067;28;20081;-71
2022/03/15 09:07:47;;;;;;;53.35;33.95;;;;;;;10.38;97.58;101607.75;4983645;28;20027;-72
2022/03/15 09:10:24;;;;;;;52.88;34.20;;;;;;;10.36;97.71;101607.03;3951108;28;10002871;-71
2022/03/15 09:12:50;;;;;;;55.40;36.13;;;;;;;10.42;97.93;101596.09;4982420;28;20493;-70
2022/03/15 09:15:17;;;;;;;56.38;34.03;;;;;;;10.46;97.04;101598.47;4978692;28;20031;-71
2022/03/15 09:17:42;;;;;;;55.88;35.42;;;;;;;10.48;96.88;101601.00;4983212;28;20027;-71
2022/03/15 09:20:09;;;;;;;52.33;35.78;;;;;;;10.55;97.87;101597.03;5014174;28;20049;-70
2022/03/15 09:22:35;;;;;;;51.70;35.13;;;;;;;10.71;97.49;101597.81;4980101;28;20076;-71
2022/03/15 09:25:01;;;;;;;50.35;33.35;;;;;;;10.84;95.11;101593.47;4982661;28;20054;-71
2022/03/15 09:27:27;;;;;;;50.80;33.63;;;;;;;10.92;94.06;101598.28;4999822;28;20482;-72
2022/03/15 09:29:54;;;;;;;46.72;32.05;;;;;;;10.96;91.72;101592.69;4980823;28;20143;-72
2022/03/15 09:32:19;;;;;;;50.25;33.63;;;;;;;11.04;91.21;101601.00;4983357;28;20037;-69
2022/03/15 09:34:45;;;;;;;48.35;31.83;;;;;;;11.13;89.30;101588.16;4979930;28;20445;-70
2022/03/15 09:37:14;;;;;;;49.88;31.58;;;;;;;11.23;88.52;101592.78;4984511;28;20174;-71
2022/03/15 09:39:39;;;;;;;50.20;32.35;;;;;;;11.24;88.35;101585.69;4983074;28;20138;-70
2022/03/15 09:42:08;;;;;;;49.22;32.40;;;;;;;11.31;87.64;101593.09;4979756;28;20038;-70
2022/03/15 09:44:37;;;;;;;44.05;30.52;;;;;;;11.44;86.62;101595.81;4981806;28;20377;-70
2022/03/15 09:47:08;;;;;;;43.97;31.08;;;;;;;11.61;85.10;101584.16;4980395;28;20038;-71
2022/03/15 09:49:35;;;;;;;40.30;29.27;;;;;;;11.75;83.35;101570.91;4982282;28;20121;-70
2022/03/15 09:52:06;;;;;;;47.00;30.17;;;;;;;11.83;82.07;101564.19;4981893;28;20019;-71
2022/03/15 09:54:31;;;;;;;47.60;31.85;;;;;;;12.02;81.59;101557.63;4981896;28;20043;-71
2022/03/15 09:56:57;;;;;;;44.65;31.05;;;;;;;12.16;80.83;101554.91;4983076;28;20101;-71
2022/03/15 09:59:25;;;;;;;48.83;31.52;;;;;;;12.33;79.89;101562.53;5013942;28;20034;-71
2022/03/15 10:01:52;;;;;;;44.20;30.33;;;;;;;12.45;78.57;101571.44;4980116;28;20058;-73
2022/03/15 10:04:19;;;;;;;47.97;30.35;;;;;;;12.51;78.03;101566.56;4983294;28;20077;-70
2022/03/15 10:06:45;;;;;;;45.50;32.00;;;;;;;12.59;77.02;101563.41;4982357;28;20034;-69
2022/03/15 10:09:11;;;;;;;52.00;32.15;;;;;;;12.56;75.16;101564.44;4980730;28;20154;-71
2022/03/15 10:11:37;;;;;;;45.10;30.70;;;;;;;12.50;75.38;101564.03;4982011;28;20030;-73
2022/03/15 10:14:04;;;;;;;51.28;31.30;;;;;;;12.45;75.28;101561.69;4981207;28;20042;-72
2022/03/15 10:16:32;;;;;;;45.05;30.48;;;;;;;12.40;75.31;101573.56;4980924;28;20380;-72
2022/03/15 10:18:59;;;;;;;49.25;31.95;;;;;;;12.36;75.06;101564.16;4981627;28;20094;-73
2022/03/15 10:21:37;;;;;;;47.25;31.35;;;;;;;12.37;75.19;101566.66;4980605;28;20035;-71
2022/03/15 10:24:06;;;;;;;49.20;33.65;;;;;;;12.39;75.07;101567.41;4981047;28;20048;-72
2022/03/15 10:26:39;;;;;;;47.85;31.52;;;;;;;12.38;75.12;101557.78;4982588;28;20034;-74
2022/03/15 10:29:07;;;;;;;47.97;33.10;;;;;;;12.37;74.11;101555.25;4986157;28;20125;-71
2022/03/15 10:31:34;;;;;;;46.20;30.27;;;;;;;12.35;73.87;101554.50;4982681;28;20371;-74
2022/03/15 10:34:02;;;;;;;49.40;31.48;;;;;;;12.40;73.90;101558.53;4982477;28;20089;-72
2022/03/15 10:36:41;;;;;;;48.63;30.67;;;;;;;12.45;72.83;101550.25;4980322;28;20042;-71
2022/03/15 10:39:10;;;;;;;46.42;31.42;;;;;;;12.48;72.56;101535.03;4982078;28;20443;-71
2022/03/15 10:41:42;;;;;;;44.42;30.65;;;;;;;12.49;70.82;101536.69;4979917;28;20534;-72
2022/03/15 10:44:16;;;;;;;49.70;31.90;;;;;;;12.41;71.27;101540.84;4981989;28;20205;-71
2022/03/15 10:46:41;;;;;;;46.45;31.60;;;;;;;12.44;72.07;101533.53;4978698;28;20030;-70
2022/03/15 10:49:07;;;;;;;46.00;31.23;;;;;;;12.47;72.21;101535.97;4978266;28;21581;-72
2022/03/15 10:51:33;;;;;;;50.88;31.85;;;;;;;12.51;70.28;101533.94;4980579;28;20472;-70
2022/03/15 10:54:02;;;;;;;49.13;32.33;;;;;;;12.56;70.22;101523.88;4980835;28;20038;-72
2022/03/15 10:56:28;;;;;;;47.75;31.17;;;;;;;12.59;69.70;101521.03;4983359;28;20038;-72
2022/03/15 10:58:55;;;;;;;47.58;30.90;;;;;;;12.59;70.11;101516.56;4979148;28;20042;-71
2022/03/15 11:01:23;;;;;;;47.97;31.90;;;;;;;12.53;69.24;101521.44;4980623;28;20075;-72
2022/03/15 11:03:56;;;;;;;43.08;29.40;;;;;;;12.49;68.36;101518.16;4981978;28;20027;-69
2022/03/15 11:06:31;;;;;;;42.78;30.23;;;;;;;12.47;68.09;101512.13;4979593;28;20077;-72